createdAt,value
2019-02-18T00:54:00.314Z,101903.69
2019-02-18T01:49:51.486Z,101875.10
2019-02-18T01:52:49.717Z,101871.17
2019-02-18T01:55:50.164Z,101861.50
2019-02-18T01:58:40.060Z,101857.36
2019-02-18T02:01:43.431Z,101864.83
2019-02-18T02:05:13.949Z,101852.92
2019-02-18T02:07:55.767Z,101854.33
2019-02-18T02:10:38.885Z,101855.09
2019-02-18T02:13:40.314Z,101857.06
2019-02-18T02:16:40.732Z,101857.06
2019-02-18T02:19:24.396Z,101864.50
2019-02-18T02:22:42.676Z,101854.27
2019-02-18T02:25:45.757Z,101854.59
2019-02-18T02:28:35.417Z,101852.66
2019-02-18T02:31:26.047Z,101853.16
2019-02-18T02:34:16.118Z,101847.05
2019-02-18T02:37:32.299Z,101855.46
2019-02-18T02:41:16.532Z,101849.91
2019-02-18T02:47:28.040Z,101858.56
2019-02-18T02:50:30.365Z,101843.22
2019-02-18T02:53:28.803Z,101845.14
2019-02-18T02:56:11.037Z,101835.31
2019-02-18T02:58:59.821Z,101830.50
2019-02-18T03:02:22.588Z,101834.01
2019-02-18T03:05:58.188Z,101830.84
2019-02-18T03:08:43.968Z,101829.45
2019-02-18T03:12:00.833Z,101826.75
2019-02-18T03:21:40.886Z,101823.69
2019-02-18T03:24:23.436Z,101823.78
2019-02-18T03:27:06.228Z,101816.16
2019-02-18T03:30:32.513Z,101815.91
2019-02-18T03:33:11.087Z,101815.28
2019-02-18T03:36:31.486Z,101813.34
2019-02-18T03:39:18.664Z,101813.73
2019-02-18T03:42:02.367Z,101804.81
2019-02-18T03:44:40.104Z,101804.66
2019-02-18T03:47:19.901Z,101801.52
2019-02-18T03:49:59.095Z,101800.59
2019-02-18T03:52:50.664Z,101803.41
2019-02-18T03:55:43.581Z,101806.23
2019-02-18T03:58:21.733Z,101806.63
2019-02-18T04:00:55.124Z,101810.31
2019-02-18T04:06:58.494Z,101803.42
2019-02-18T04:10:19.925Z,101800.03
2019-02-18T04:21:00.788Z,101811.33
2019-02-18T04:27:29.641Z,101811.81
2019-02-18T04:30:47.084Z,101811.49
2019-02-18T04:55:16.457Z,101791.63
2019-02-18T04:58:22.110Z,101784.31
2019-02-18T05:05:25.494Z,101782.08
2019-02-18T05:09:24.778Z,101780.62
2019-02-18T05:19:44.106Z,101772.91
2019-02-18T05:23:07.902Z,101761.09
2019-02-18T05:26:26.143Z,101765.48
2019-02-18T05:29:10.577Z,101757.41
2019-02-18T05:32:12.199Z,101758.16
2019-02-18T05:34:57.900Z,101741.09
2019-02-18T05:37:46.392Z,101744.21
2019-02-18T05:41:23.334Z,101745.16
2019-02-18T05:44:53.465Z,101741.87
2019-02-18T05:47:47.791Z,101738.86
2019-02-18T05:50:49.354Z,101747.97
2019-02-18T05:53:43.367Z,101752.23
2019-02-18T05:57:04.884Z,101747.63
2019-02-18T05:59:41.581Z,101752.61
2019-02-18T06:03:45.291Z,101752.26
2019-02-18T06:06:24.206Z,101752.66
2019-02-18T06:09:12.658Z,101750.41
2019-02-18T06:11:59.203Z,101759.75
2019-02-18T06:15:08.611Z,101757.09
2019-02-18T06:21:19.903Z,101762.16
2019-02-18T06:24:03.066Z,101761.14
2019-02-18T06:26:42.632Z,101760.33
2019-02-18T06:29:30.055Z,101753.67
2019-02-18T06:32:35.825Z,101753.35
2019-02-18T06:35:09.000Z,101762.09
2019-02-18T06:37:50.275Z,101759.95
2019-02-18T06:41:07.823Z,101767.04
2019-02-18T06:43:44.923Z,101757.75
2019-02-18T06:46:38.666Z,101759.16
2019-02-18T06:49:21.282Z,101755.63
2019-02-18T06:52:17.067Z,101757.05
2019-02-18T06:55:00.004Z,101751.69
2019-02-18T06:57:55.466Z,101742.24
2019-02-18T07:00:44.213Z,101735.67
2019-02-18T07:03:46.738Z,101736.92
2019-02-18T07:07:01.806Z,101739.31
2019-02-18T07:09:59.322Z,101733.03
2019-02-18T07:12:51.713Z,101735.18
2019-02-18T07:15:36.535Z,101734.66
2019-02-18T07:18:20.465Z,101738.39
2019-02-18T07:20:54.360Z,101742.76
2019-02-18T07:26:57.517Z,101726.21
2019-02-18T07:31:47.580Z,101731.50
2019-02-18T07:34:24.146Z,101731.66
2019-02-18T07:40:24.782Z,101729.27
2019-02-18T07:40:26.535Z,101729.92
2019-02-18T07:43:12.631Z,101728.03
2019-02-18T07:46:31.219Z,101726.30
2019-02-18T07:49:39.190Z,101722.00
2019-02-18T07:52:57.517Z,101726.90
2019-02-18T07:56:13.550Z,101733.38
2019-02-18T08:05:35.546Z,101725.77
2019-02-18T08:08:19.533Z,101725.22
2019-02-18T08:11:46.396Z,101725.25
2019-02-18T08:15:37.525Z,101726.33
2019-02-18T08:22:34.395Z,101719.73
2019-02-18T08:33:05.660Z,101706.42
2019-02-18T09:00:45.307Z,101714.38
2019-02-18T09:03:22.321Z,101720.11
2019-02-18T09:06:19.473Z,101714.30
2019-02-18T09:08:54.060Z,101712.50
2019-02-18T09:11:29.396Z,101700.86
2019-02-18T09:14:02.219Z,101712.73
2019-02-18T09:16:35.936Z,101706.53
2019-02-18T09:19:08.943Z,101709.30
2019-02-18T09:21:40.650Z,101700.03
2019-02-18T09:24:19.878Z,101694.92
2019-02-18T09:26:51.221Z,101700.41
2019-02-18T09:29:23.007Z,101702.47
2019-02-18T09:31:54.828Z,101702.36
2019-02-18T09:34:27.425Z,101703.26
2019-02-18T09:36:59.106Z,101695.58
2019-02-18T09:39:31.628Z,101702.77
2019-02-18T09:42:07.094Z,101703.21
2019-02-18T09:44:40.121Z,101699.45
2019-02-18T09:47:12.856Z,101695.32
2019-02-18T09:49:51.453Z,101694.81
2019-02-18T09:52:26.684Z,101687.22
2019-02-18T09:54:59.196Z,101689.59
2019-02-18T09:57:35.480Z,101691.57
2019-02-18T10:00:23.694Z,101695.00
2019-02-18T10:03:11.440Z,101692.68
2019-02-18T10:05:59.003Z,101688.74
2019-02-18T10:08:33.306Z,101687.28
2019-02-18T10:11:06.006Z,101682.05
2019-02-18T10:13:39.418Z,101682.89
2019-02-18T10:16:13.559Z,101687.55
2019-02-18T10:19:04.946Z,101669.56
2019-02-18T10:21:37.404Z,101677.10
2019-02-18T10:24:11.036Z,101666.95
2019-02-18T10:26:43.870Z,101666.90
2019-02-18T10:29:16.159Z,101663.38
2019-02-18T10:31:50.165Z,101666.02
2019-02-18T10:34:29.706Z,101667.07
2019-02-18T10:37:02.830Z,101673.11
2019-02-18T10:39:37.116Z,101664.88
2019-02-18T10:42:11.022Z,101667.81
2019-02-18T10:44:48.559Z,101663.73
2019-02-18T10:47:21.342Z,101656.00
2019-02-18T10:49:54.966Z,101651.05
2019-02-18T10:52:27.700Z,101649.70
2019-02-18T10:55:44.405Z,101636.62
2019-02-18T10:59:03.123Z,101637.08
2019-02-18T11:01:40.379Z,101633.48
2019-02-18T11:04:14.163Z,101628.59
2019-02-18T11:10:08.181Z,101629.55
2019-02-18T11:12:43.970Z,101629.44
2019-02-18T11:15:31.772Z,101627.78
2019-02-18T11:18:05.710Z,101624.19
2019-02-18T11:20:41.727Z,101617.66
2019-02-18T11:23:14.056Z,101614.34
2019-02-18T11:25:47.697Z,101610.05
2019-02-18T11:28:23.831Z,101608.08
2019-02-18T11:34:15.104Z,101589.70
2019-02-18T11:36:59.098Z,101584.27
2019-02-18T11:39:56.338Z,101582.34
2019-02-18T11:42:29.977Z,101569.47
2019-02-18T11:45:03.699Z,101564.61
2019-02-18T11:47:36.642Z,101562.20
2019-02-18T11:50:11.707Z,101564.23
2019-02-18T11:52:45.227Z,101563.16
2019-02-18T11:55:19.524Z,101560.82
2019-02-18T11:57:59.919Z,101557.89
2019-02-18T12:00:32.468Z,101550.45
2019-02-18T12:03:45.456Z,101549.58
2019-02-18T12:06:27.432Z,101543.72
2019-02-18T12:09:07.308Z,101542.99
2019-02-18T12:11:56.161Z,101539.84
2019-02-18T12:14:40.475Z,101536.18
2019-02-18T12:17:20.295Z,101533.52
2019-02-18T12:20:13.461Z,101528.75
2019-02-18T12:22:48.210Z,101525.13
2019-02-18T12:25:46.667Z,101529.33
2019-02-18T12:28:08.057Z,101532.13
2019-02-18T12:30:41.481Z,101527.17
2019-02-18T12:33:16.833Z,101514.78
2019-02-18T12:36:00.358Z,101511.08
2019-02-18T12:38:41.151Z,101503.83
2019-02-18T12:41:13.946Z,101506.30
2019-02-18T12:43:49.870Z,101503.27
2019-02-18T12:46:32.205Z,101503.79
2019-02-18T12:49:07.101Z,101495.22
2019-02-18T12:52:12.029Z,101507.14
2019-02-18T12:54:45.052Z,101504.86
2019-02-18T12:57:22.076Z,101491.53
2019-02-18T13:00:24.639Z,101480.64
2019-02-18T13:03:06.547Z,101482.34
2019-02-18T13:05:45.528Z,101478.41
2019-02-18T13:08:35.105Z,101476.70
2019-02-18T13:11:27.830Z,101467.48
2019-02-18T13:14:12.059Z,101466.35
2019-02-18T13:16:50.219Z,101466.20
2019-02-18T13:19:30.257Z,101460.22
2019-02-18T13:22:04.140Z,101451.05
2019-02-18T13:24:47.053Z,101452.81
2019-02-18T13:27:21.245Z,101455.70
2019-02-18T13:30:18.350Z,101444.81
2019-02-18T13:33:00.693Z,101450.25
2019-02-18T13:35:41.844Z,101446.90
2019-02-18T13:38:17.657Z,101445.75
2019-02-18T13:41:03.848Z,101442.77
2019-02-18T13:43:38.674Z,101430.41
2019-02-18T13:46:19.669Z,101434.22
2019-02-18T13:48:57.821Z,101424.17
2019-02-18T13:51:46.931Z,101431.39
2019-02-18T13:54:25.646Z,101419.11
2019-02-18T14:00:22.993Z,101420.01
2019-02-18T14:03:01.024Z,101415.72
2019-02-18T14:05:39.080Z,101414.14
2019-02-18T14:08:23.968Z,101408.73
2019-02-18T14:11:48.981Z,101411.77
2019-02-18T14:14:36.884Z,101404.33
2019-02-18T14:17:35.493Z,101401.05
2019-02-18T14:20:14.231Z,101400.75
2019-02-18T14:23:48.390Z,101391.70
2019-02-18T14:26:22.785Z,101388.08
2019-02-18T14:28:55.341Z,101389.95
2019-02-18T14:31:27.857Z,101388.77
2019-02-18T14:34:21.704Z,101376.48
2019-02-18T14:36:58.779Z,101386.33
2019-02-18T14:39:35.364Z,101387.04
2019-02-18T14:42:07.614Z,101380.98
2019-02-18T14:44:49.248Z,101381.09
2019-02-18T14:47:47.115Z,101379.64
2019-02-18T14:50:22.923Z,101385.37
2019-02-18T14:53:17.254Z,101375.05
2019-02-18T14:55:49.488Z,101371.66
2019-02-18T14:58:24.379Z,101370.95
2019-02-18T15:00:58.063Z,101372.52
2019-02-18T15:03:31.371Z,101374.67
2019-02-18T15:06:07.614Z,101368.47
2019-02-18T15:08:49.477Z,101364.28
2019-02-18T15:11:36.718Z,101362.84
2019-02-18T15:14:21.214Z,101359.75
2019-02-18T15:16:59.311Z,101360.73
2019-02-18T15:19:32.118Z,101349.72
2019-02-18T15:22:24.260Z,101343.78
2019-02-18T15:24:58.898Z,101347.90
2019-02-18T15:27:31.589Z,101344.99
2019-02-18T15:30:03.898Z,101340.72
2019-02-18T15:32:39.369Z,101334.75
2019-02-18T15:35:16.517Z,101330.31
2019-02-18T15:37:55.255Z,101336.11
2019-02-18T15:40:31.365Z,101326.36
2019-02-18T15:43:03.400Z,101326.20
2019-02-18T15:45:35.992Z,101319.92
2019-02-18T15:48:11.329Z,101319.15
2019-02-18T15:51:04.274Z,101321.03
2019-02-18T15:53:38.717Z,101309.00
2019-02-18T15:56:14.640Z,101315.66
2019-02-18T15:59:07.450Z,101309.45
2019-02-18T16:01:41.165Z,101309.91
2019-02-18T16:04:26.795Z,101309.38
2019-02-18T16:07:03.359Z,101302.86
2019-02-18T16:09:44.256Z,101308.81
2019-02-18T16:12:23.114Z,101303.80
2019-02-18T16:14:56.440Z,101298.33
2019-02-18T16:17:34.159Z,101303.71
2019-02-18T16:20:34.510Z,101302.28
2019-02-18T16:29:25.821Z,101298.05
2019-02-18T16:32:01.707Z,101299.75
2019-02-18T16:34:38.353Z,101294.69
2019-02-18T16:37:18.759Z,101299.41
2019-02-18T16:40:00.968Z,101295.38
2019-02-18T16:42:35.238Z,101293.28
2019-02-18T16:45:12.218Z,101296.05
2019-02-18T16:47:47.367Z,101289.93
2019-02-18T16:50:21.251Z,101294.20
2019-02-18T16:53:00.856Z,101294.77
2019-02-18T16:55:49.771Z,101297.53
2019-02-18T16:58:29.218Z,101291.16
2019-02-18T17:01:13.856Z,101291.23
2019-02-18T17:04:27.356Z,101295.27
2019-02-18T17:07:11.166Z,101296.17
2019-02-18T17:09:55.592Z,101291.33
2019-02-18T17:12:36.540Z,101284.16
2019-02-18T17:15:34.508Z,101288.13
2019-02-18T17:18:14.451Z,101295.59
2019-02-18T17:20:59.569Z,101293.58
2019-02-18T17:23:41.259Z,101296.41
2019-02-18T17:26:28.145Z,101285.41
2019-02-18T17:29:27.015Z,101293.28
2019-02-18T17:32:14.430Z,101294.55
2019-02-18T17:35:08.422Z,101284.73
2019-02-18T17:38:15.168Z,101280.06
2019-02-18T17:44:38.341Z,101273.83
2019-02-18T17:47:25.570Z,101266.30
2019-02-18T17:50:07.383Z,101264.55
2019-02-18T17:52:42.990Z,101262.96
2019-02-18T17:55:16.014Z,101265.75
2019-02-18T17:57:48.530Z,101267.23
2019-02-18T18:00:34.574Z,101257.36
2019-02-18T18:03:27.358Z,101261.60
2019-02-18T18:19:44.073Z,101239.59
2019-02-18T18:32:02.201Z,101220.61
2019-02-18T18:33:19.595Z,101217.80
2019-02-18T19:10:54.189Z,101202.19
2019-02-18T19:20:35.692Z,101206.70
2019-02-18T20:03:53.668Z,101192.41
2019-02-18T20:14:13.042Z,101186.14
2019-02-18T20:34:43.003Z,101179.14
2019-02-18T20:54:37.697Z,101167.29
2019-02-18T21:37:34.307Z,101134.19
2019-02-18T21:46:20.325Z,101132.03
